Deering, Alaska
Current Conditions -  °F | °C
As of 7:53 PM on Sunday 21 Dec 2014 (Local Time) from PADE Reporting Station
Haze Haze  
Wind Chill: -10°   Ceiling: 6000
Heat Index:   Visibility: 6mi
Dew Point:   Wind: 20mph
Humidity: 77%   Direction: 260°W
Pressure: 29.59"   Gusts: NA
Location:  66.07°N, 162.72°W
Report Text: PADE 220453Z AUTO 26017KT 6SM HZ BKN060 OVC085 M13/M16 A2959 RMK AO2 UPB0356E51 SLP019 P0000 T11281161 TSNO $
Loading
Personal Weather Stations






























Interactive Weather Map New forecast layout! Learn more

10-Day Weather Forecast

Advertisements
Track Severe Weather on mobile